createdAt,value
2023-01-17T00:01:29.411Z,95318.78
2023-01-17T00:03:01.064Z,95318.34
2023-01-17T00:04:51.789Z,95319.00
2023-01-17T00:06:45.626Z,95319.47
2023-01-17T00:08:35.849Z,95322.34
2023-01-17T00:10:13.905Z,95321.59
2023-01-17T00:11:46.281Z,95327.09
2023-01-17T00:13:18.014Z,95338.81
2023-01-17T00:14:49.834Z,95339.91
2023-01-17T00:16:21.490Z,95342.59
2023-01-17T00:17:54.234Z,95341.00
2023-01-17T00:19:44.411Z,95333.25
2023-01-17T00:21:34.453Z,95337.78
2023-01-17T00:23:26.710Z,95340.13
2023-01-17T00:25:16.829Z,95340.28
2023-01-17T00:27:07.160Z,95328.47
2023-01-17T00:28:40.691Z,95328.66
2023-01-17T00:30:12.712Z,95324.53
2023-01-17T00:31:44.341Z,95330.41
2023-01-17T00:33:16.097Z,95333.06
2023-01-17T00:34:47.688Z,95334.00
2023-01-17T00:36:19.327Z,95332.81
2023-01-17T00:38:07.395Z,95341.63
2023-01-17T00:39:38.986Z,95350.25
2023-01-17T00:41:12.901Z,95347.47
2023-01-17T00:42:47.133Z,95340.25
2023-01-17T00:44:37.263Z,95342.50
2023-01-17T00:46:27.587Z,95344.28
2023-01-17T00:48:17.851Z,95341.75
2023-01-17T00:50:08.034Z,95337.44
2023-01-17T00:51:58.309Z,95350.56
2023-01-17T00:53:49.002Z,95341.25
2023-01-17T00:55:39.361Z,95340.44
2023-01-17T00:57:29.525Z,95351.88
2023-01-17T00:59:19.314Z,95352.22
2023-01-17T01:01:09.358Z,95356.19
2023-01-17T01:02:59.585Z,95360.97
2023-01-17T01:04:49.600Z,95367.41
2023-01-17T01:06:39.801Z,95374.41
2023-01-17T01:08:43.167Z,95379.41
2023-01-17T01:10:33.484Z,95376.59
2023-01-17T01:12:23.864Z,95389.00
2023-01-17T01:14:14.567Z,95393.81
2023-01-17T01:16:04.856Z,95396.03
2023-01-17T01:17:55.267Z,95392.41
2023-01-17T01:19:45.427Z,95399.06
2023-01-17T01:21:35.734Z,95402.19
2023-01-17T01:23:26.019Z,95403.88
2023-01-17T01:25:15.912Z,95392.53
2023-01-17T01:27:05.850Z,95399.72
2023-01-17T01:28:55.957Z,95408.72
2023-01-17T01:30:46.119Z,95407.91
2023-01-17T01:32:36.351Z,95399.47
2023-01-17T01:34:08.090Z,95397.22
2023-01-17T01:35:41.905Z,95393.31
2023-01-17T01:37:13.493Z,95403.47
2023-01-17T01:38:45.961Z,95395.91
2023-01-17T01:40:19.256Z,95398.03
2023-01-17T01:41:50.926Z,95396.53
2023-01-17T01:44:03.783Z,95401.59
2023-01-17T01:45:35.953Z,95396.41
2023-01-17T01:47:13.432Z,95396.41
2023-01-17T01:48:58.109Z,95394.59
2023-01-17T01:50:33.443Z,95399.91
2023-01-17T01:52:06.744Z,95392.22
2023-01-17T01:53:42.718Z,95391.25
2023-01-17T01:55:23.207Z,95391.88
2023-01-17T01:56:59.040Z,95398.31
2023-01-17T01:58:34.377Z,95398.75
2023-01-17T02:00:11.656Z,95393.69
2023-01-17T02:01:47.306Z,95394.84
2023-01-17T02:03:25.949Z,95390.34
2023-01-17T02:04:59.717Z,95390.66
2023-01-17T02:06:39.289Z,95387.28
2023-01-17T02:08:15.389Z,95391.19
2023-01-17T02:09:47.057Z,95383.97
2023-01-17T02:11:19.082Z,95386.00
2023-01-17T02:12:52.977Z,95385.69
2023-01-17T02:14:24.580Z,95391.53
2023-01-17T02:16:08.252Z,95391.38
2023-01-17T02:17:54.846Z,95388.56
2023-01-17T02:19:29.691Z,95387.06
2023-01-17T02:21:09.994Z,95392.22
2023-01-17T02:22:47.511Z,95382.00
2023-01-17T02:24:27.942Z,95379.41
2023-01-17T02:26:30.415Z,95384.84
2023-01-17T02:28:04.071Z,95395.44
2023-01-17T02:30:12.841Z,95381.66
2023-01-17T02:32:06.360Z,95386.13
2023-01-17T02:34:11.302Z,95375.53
2023-01-17T02:35:45.667Z,95388.13
2023-01-17T02:37:26.351Z,95379.56
2023-01-17T02:39:19.874Z,95379.66
2023-01-17T02:41:07.704Z,95379.28
2023-01-17T02:42:45.588Z,95382.88
2023-01-17T02:44:20.237Z,95381.34
2023-01-17T02:45:51.864Z,95381.84
2023-01-17T02:47:28.150Z,95375.09
2023-01-17T02:49:00.510Z,95381.41
2023-01-17T02:50:49.064Z,95384.81
2023-01-17T02:52:49.969Z,95379.63
2023-01-17T02:54:28.443Z,95377.06
2023-01-17T02:56:11.682Z,95373.50
2023-01-17T02:58:05.777Z,95374.66
2023-01-17T02:59:46.559Z,95376.53
2023-01-17T03:01:55.808Z,95377.16
2023-01-17T03:03:43.236Z,95369.66
2023-01-17T03:05:23.972Z,95373.69
2023-01-17T03:07:03.210Z,95378.38
2023-01-17T03:08:34.875Z,95374.03
2023-01-17T03:10:08.271Z,95376.59
2023-01-17T03:11:39.885Z,95372.88
2023-01-17T03:13:11.418Z,95374.66
2023-01-17T03:14:42.954Z,95374.91
2023-01-17T03:16:20.160Z,95380.47
2023-01-17T03:17:55.439Z,95375.00
2023-01-17T03:19:27.042Z,95374.75
2023-01-17T03:20:58.675Z,95378.03
2023-01-17T03:22:30.241Z,95378.94
2023-01-17T03:24:03.019Z,95374.13
2023-01-17T03:25:34.578Z,95378.22
2023-01-17T03:27:06.232Z,95372.72
2023-01-17T03:28:37.848Z,95378.31
2023-01-17T03:30:10.029Z,95385.00
2023-01-17T03:31:41.928Z,95383.94
2023-01-17T03:33:17.069Z,95384.09
2023-01-17T03:34:48.868Z,95381.78
2023-01-17T03:36:20.452Z,95380.81
2023-01-17T03:37:51.996Z,95377.34
2023-01-17T03:39:23.589Z,95381.19
2023-01-17T03:40:55.438Z,95373.69
2023-01-17T03:42:27.078Z,95374.41
2023-01-17T03:43:58.673Z,95367.00
2023-01-17T03:45:30.267Z,95369.81
2023-01-17T03:47:01.961Z,95373.41
2023-01-17T03:48:33.941Z,95372.41
2023-01-17T03:50:06.037Z,95365.56
2023-01-17T03:51:37.610Z,95370.56
2023-01-17T03:53:09.359Z,95372.34
2023-01-17T03:54:41.116Z,95367.09
2023-01-17T03:56:14.775Z,95364.88
2023-01-17T03:57:46.331Z,95363.75
2023-01-17T03:59:17.954Z,95365.91
2023-01-17T04:00:49.609Z,95366.09
2023-01-17T04:02:21.303Z,95364.88
2023-01-17T04:03:52.941Z,95362.00
2023-01-17T04:05:24.711Z,95361.28
2023-01-17T04:06:56.260Z,95362.00
2023-01-17T04:08:28.255Z,95362.72
2023-01-17T04:09:59.924Z,95359.25
2023-01-17T04:11:31.560Z,95365.75
2023-01-17T04:13:03.212Z,95367.00
2023-01-17T04:14:35.263Z,95362.09
2023-01-17T04:16:13.254Z,95362.81
2023-01-17T04:17:44.841Z,95358.28
2023-01-17T04:19:17.033Z,95370.63
2023-01-17T04:20:48.693Z,95374.81
2023-01-17T04:22:20.313Z,95366.81
2023-01-17T04:23:51.977Z,95379.53
2023-01-17T04:25:25.640Z,95374.81
2023-01-17T04:26:57.288Z,95374.31
2023-01-17T04:28:29.107Z,95375.53
2023-01-17T04:30:00.844Z,95380.19
2023-01-17T04:31:32.447Z,95376.19
2023-01-17T04:33:05.225Z,95379.28
2023-01-17T04:34:36.819Z,95383.94
2023-01-17T04:36:08.758Z,95385.00
2023-01-17T04:37:40.553Z,95378.13
2023-01-17T04:39:12.122Z,95382.75
2023-01-17T04:40:43.702Z,95385.44
2023-01-17T04:42:15.383Z,95394.19
2023-01-17T04:43:47.094Z,95388.22
2023-01-17T04:45:19.674Z,95388.47
2023-01-17T04:46:51.363Z,95388.03
2023-01-17T04:48:23.062Z,95382.41
2023-01-17T04:49:54.800Z,95383.31
2023-01-17T04:51:26.501Z,95382.22
2023-01-17T04:52:59.083Z,95381.50
2023-01-17T04:54:30.707Z,95382.66
2023-01-17T04:56:03.004Z,95380.44
2023-01-17T04:57:34.886Z,95379.47
2023-01-17T04:59:06.548Z,95379.63
2023-01-17T05:00:38.111Z,95383.03
2023-01-17T05:02:10.313Z,95381.59
2023-01-17T05:03:41.894Z,95380.53
2023-01-17T05:05:13.549Z,95378.31
2023-01-17T05:06:45.254Z,95386.22
2023-01-17T05:08:16.872Z,95380.63
2023-01-17T05:09:48.464Z,95374.41
2023-01-17T05:11:20.049Z,95382.13
2023-01-17T05:12:55.504Z,95382.94
2023-01-17T05:14:27.142Z,95377.59
2023-01-17T05:15:59.027Z,95366.47
2023-01-17T05:17:30.636Z,95377.41
2023-01-17T05:19:02.238Z,95376.59
2023-01-17T05:20:35.253Z,95377.94
2023-01-17T05:22:15.238Z,95373.94
2023-01-17T05:23:47.066Z,95368.78
2023-01-17T05:25:18.615Z,95372.31
2023-01-17T05:26:54.741Z,95372.53
2023-01-17T05:28:26.491Z,95376.88
2023-01-17T05:29:58.134Z,95380.06
2023-01-17T05:31:29.804Z,95376.19
2023-01-17T05:33:01.523Z,95371.00
2023-01-17T05:34:33.268Z,95367.00
2023-01-17T05:36:05.150Z,95372.69
2023-01-17T05:37:36.713Z,95374.38
2023-01-17T05:39:08.371Z,95369.38
2023-01-17T05:40:40.041Z,95370.03
2023-01-17T05:42:11.605Z,95376.97
2023-01-17T05:43:43.201Z,95371.63
2023-01-17T05:45:17.130Z,95379.97
2023-01-17T05:46:48.729Z,95374.38
2023-01-17T05:48:20.906Z,95368.41
2023-01-17T05:49:52.536Z,95363.69
2023-01-17T05:51:24.235Z,95358.19
2023-01-17T05:53:01.049Z,95358.72
2023-01-17T05:54:32.852Z,95345.59
2023-01-17T05:56:04.710Z,95350.69
2023-01-17T05:57:36.325Z,95349.28
2023-01-17T05:59:07.977Z,95349.59
2023-01-17T06:00:39.801Z,95339.63
2023-01-17T06:02:11.454Z,95340.81
2023-01-17T06:03:43.104Z,95341.94
2023-01-17T06:05:15.619Z,95337.94
2023-01-17T06:06:47.231Z,95340.34
2023-01-17T06:08:19.294Z,95337.31
2023-01-17T06:09:51.022Z,95324.50
2023-01-17T06:11:22.726Z,95329.41
2023-01-17T06:13:09.023Z,95332.66
2023-01-17T06:14:40.675Z,95338.13
2023-01-17T06:16:15.509Z,95322.34
2023-01-17T06:17:47.223Z,95326.03
2023-01-17T06:19:18.845Z,95326.44
2023-01-17T06:20:56.947Z,95331.16
2023-01-17T06:22:28.572Z,95337.78
2023-01-17T06:24:00.577Z,95335.03
2023-01-17T06:25:37.981Z,95337.47
2023-01-17T06:27:10.582Z,95335.44
2023-01-17T06:28:42.349Z,95332.94
2023-01-17T06:30:14.269Z,95335.56
2023-01-17T06:31:45.971Z,95328.72
2023-01-17T06:33:17.711Z,95328.59
2023-01-17T06:34:49.333Z,95326.72
2023-01-17T06:36:21.264Z,95334.91
2023-01-17T06:37:55.371Z,95333.75
2023-01-17T06:39:26.990Z,95332.97
2023-01-17T06:41:00.423Z,95326.03
2023-01-17T06:42:32.301Z,95333.13
2023-01-17T06:44:07.569Z,95325.94
2023-01-17T06:45:39.208Z,95331.78
2023-01-17T06:47:10.929Z,95328.72
2023-01-17T06:48:45.186Z,95335.03
2023-01-17T06:50:18.071Z,95336.03
2023-01-17T06:51:49.922Z,95336.53
2023-01-17T06:53:21.649Z,95336.69
2023-01-17T06:54:53.243Z,95341.44
2023-01-17T06:56:24.896Z,95335.06
2023-01-17T06:57:59.498Z,95334.47
2023-01-17T06:59:31.101Z,95325.66
2023-01-17T07:01:11.309Z,95324.38
2023-01-17T07:02:42.989Z,95321.72
2023-01-17T07:04:14.612Z,95319.50
2023-01-17T07:05:46.260Z,95316.19
2023-01-17T07:07:17.963Z,95312.34
2023-01-17T07:08:49.795Z,95305.75
2023-01-17T07:10:23.634Z,95308.53
2023-01-17T07:11:59.650Z,95304.50
2023-01-17T07:13:36.355Z,95308.09
2023-01-17T07:15:08.745Z,95303.81
2023-01-17T07:16:40.930Z,95300.41
2023-01-17T07:18:12.627Z,95299.56
2023-01-17T07:19:44.982Z,95301.63
2023-01-17T07:21:16.738Z,95296.97
2023-01-17T07:22:48.370Z,95294.88
2023-01-17T07:24:21.204Z,95288.16
2023-01-17T07:25:54.711Z,95283.53
2023-01-17T07:27:27.755Z,95281.41
2023-01-17T07:28:59.693Z,95280.88
2023-01-17T07:30:31.302Z,95275.31
2023-01-17T07:32:03.286Z,95272.91
2023-01-17T07:33:35.490Z,95280.00
2023-01-17T07:35:07.471Z,95282.78
2023-01-17T07:36:39.125Z,95278.28
2023-01-17T07:38:18.952Z,95279.28
2023-01-17T07:39:50.685Z,95288.81
2023-01-17T07:41:22.545Z,95297.34
2023-01-17T07:43:01.072Z,95297.94
2023-01-17T07:44:32.699Z,95296.00
2023-01-17T07:46:06.333Z,95307.94
2023-01-17T07:47:37.913Z,95295.94
2023-01-17T07:49:09.520Z,95309.47
2023-01-17T07:50:41.308Z,95308.66
2023-01-17T07:52:12.901Z,95301.75
2023-01-17T07:53:44.496Z,95298.47
2023-01-17T07:55:16.148Z,95293.13
2023-01-17T07:56:47.815Z,95297.94
2023-01-17T07:58:20.249Z,95302.75
2023-01-17T07:59:52.300Z,95303.47
2023-01-17T08:01:24.206Z,95306.44
2023-01-17T08:03:01.267Z,95304.50
2023-01-17T08:04:35.186Z,95307.16
2023-01-17T08:06:13.924Z,95305.09
2023-01-17T08:07:45.595Z,95298.63
2023-01-17T08:09:17.267Z,95297.72
2023-01-17T08:10:49.637Z,95299.13
2023-01-17T08:12:21.445Z,95295.50
2023-01-17T08:13:59.337Z,95294.44
2023-01-17T08:15:31.060Z,95283.94
2023-01-17T08:17:16.841Z,95285.78
2023-01-17T08:18:48.509Z,95295.06
2023-01-17T08:20:21.311Z,95293.16
2023-01-17T08:21:52.964Z,95284.72
2023-01-17T08:23:25.420Z,95291.09
2023-01-17T08:24:57.018Z,95286.50
2023-01-17T08:26:28.604Z,95291.47
2023-01-17T08:28:00.222Z,95286.94
2023-01-17T08:29:31.893Z,95289.78
2023-01-17T08:31:08.933Z,95302.09
2023-01-17T08:32:40.958Z,95299.66
2023-01-17T08:34:14.155Z,95297.16
2023-01-17T08:35:54.883Z,95297.41
2023-01-17T08:37:26.537Z,95291.28
2023-01-17T08:38:58.920Z,95296.44
2023-01-17T08:40:32.716Z,95290.13
2023-01-17T08:42:04.679Z,95289.66
2023-01-17T08:43:36.408Z,95284.47
2023-01-17T08:45:10.108Z,95292.59
2023-01-17T08:46:44.228Z,95290.44
2023-01-17T08:48:15.849Z,95282.44
2023-01-17T08:49:47.444Z,95280.13
2023-01-17T08:51:19.014Z,95271.06
2023-01-17T08:52:51.119Z,95259.38
2023-01-17T08:54:23.038Z,95257.94
2023-01-17T08:56:03.116Z,95259.94
2023-01-17T08:57:34.857Z,95252.69
2023-01-17T08:59:06.491Z,95255.09
2023-01-17T09:00:38.138Z,95251.38
2023-01-17T09:02:15.259Z,95248.97
2023-01-17T09:03:49.406Z,95243.63
2023-01-17T09:05:21.316Z,95246.03
2023-01-17T09:06:52.988Z,95235.53
2023-01-17T09:08:24.562Z,95234.94
2023-01-17T09:09:56.197Z,95233.66
2023-01-17T09:11:27.973Z,95233.66
2023-01-17T09:12:59.936Z,95226.81
2023-01-17T09:14:31.745Z,95218.56
2023-01-17T09:16:04.502Z,95220.44
2023-01-17T09:17:36.409Z,95220.44
2023-01-17T09:19:09.127Z,95225.53
2023-01-17T09:20:40.840Z,95226.31
2023-01-17T09:22:12.674Z,95220.06
2023-01-17T09:23:45.329Z,95224.53
2023-01-17T09:25:17.165Z,95223.97
2023-01-17T09:26:48.967Z,95213.28
2023-01-17T09:28:21.125Z,95216.13
2023-01-17T09:29:52.822Z,95219.84
2023-01-17T09:31:27.108Z,95220.59
2023-01-17T09:32:58.964Z,95212.03
2023-01-17T09:34:30.651Z,95206.50
2023-01-17T09:36:04.410Z,95205.78
2023-01-17T09:37:36.932Z,95199.78
2023-01-17T09:39:10.564Z,95197.50
2023-01-17T09:40:46.711Z,95197.25
2023-01-17T09:42:30.337Z,95197.25
2023-01-17T09:44:29.038Z,95199.16
2023-01-17T09:46:01.520Z,95199.53
2023-01-17T09:47:36.653Z,95200.88
2023-01-17T09:49:46.402Z,95210.34
2023-01-17T09:51:26.932Z,95201.72
2023-01-17T09:53:05.325Z,95205.06
2023-01-17T09:54:42.291Z,95199.72
2023-01-17T09:56:27.899Z,95195.81
2023-01-17T09:58:27.360Z,95201.41
2023-01-17T10:00:12.935Z,95190.03
2023-01-17T10:02:05.515Z,95201.78
2023-01-17T10:04:02.020Z,95196.88
2023-01-17T10:05:57.912Z,95196.88
2023-01-17T10:07:45.614Z,95197.31
2023-01-17T10:09:48.204Z,95196.31
2023-01-17T10:11:34.957Z,95191.22
2023-01-17T10:13:46.632Z,95192.75
2023-01-17T10:15:49.039Z,95192.88
2023-01-17T10:17:36.517Z,95198.59
2023-01-17T10:19:26.274Z,95193.22
2023-01-17T10:21:12.975Z,95195.22
2023-01-17T10:23:04.050Z,95182.28
2023-01-17T10:24:51.894Z,95194.03
2023-01-17T10:26:25.703Z,95186.94
2023-01-17T10:27:59.513Z,95191.09
2023-01-17T10:29:35.069Z,95182.75
2023-01-17T10:31:20.715Z,95185.81
2023-01-17T10:32:52.441Z,95182.44
2023-01-17T10:35:02.437Z,95180.88
2023-01-17T10:36:41.928Z,95174.34
2023-01-17T10:38:15.034Z,95181.78
2023-01-17T10:39:49.211Z,95183.00
2023-01-17T10:41:29.839Z,95177.22
2023-01-17T10:43:04.993Z,95180.78
2023-01-17T10:45:04.259Z,95181.19
2023-01-17T10:46:45.253Z,95190.50
2023-01-17T10:48:33.884Z,95188.59
2023-01-17T10:50:06.005Z,95187.59
2023-01-17T10:52:04.366Z,95185.84
2023-01-17T10:54:07.185Z,95174.75
2023-01-17T10:55:53.479Z,95171.16
2023-01-17T10:57:27.216Z,95172.63
2023-01-17T10:59:16.121Z,95175.84
2023-01-17T11:00:47.697Z,95171.84
2023-01-17T11:02:33.854Z,95170.41
2023-01-17T11:04:17.824Z,95161.69
2023-01-17T11:06:22.044Z,95157.50
2023-01-17T11:08:02.956Z,95146.75
2023-01-17T11:09:40.567Z,95137.59
2023-01-17T11:11:12.404Z,95135.09
2023-01-17T11:12:47.665Z,95126.75
2023-01-17T11:14:24.119Z,95129.00
2023-01-17T11:16:03.473Z,95133.56
2023-01-17T11:17:41.869Z,95129.81
2023-01-17T11:19:32.558Z,95129.25
2023-01-17T11:21:14.551Z,95131.28
2023-01-17T11:23:09.719Z,95127.88
2023-01-17T11:24:47.478Z,95131.84
2023-01-17T11:26:34.540Z,95114.91
2023-01-17T11:28:19.651Z,95117.13
2023-01-17T11:30:16.464Z,95119.72
2023-01-17T11:31:48.223Z,95107.72
2023-01-17T11:33:48.238Z,95101.56
2023-01-17T11:35:31.087Z,95095.94
2023-01-17T11:37:33.281Z,95092.41
2023-01-17T11:39:17.151Z,95079.94
2023-01-17T11:40:50.016Z,95073.53
2023-01-17T11:42:38.749Z,95075.19
2023-01-17T11:44:30.439Z,95068.69
2023-01-17T11:46:15.526Z,95064.19
2023-01-17T11:47:47.331Z,95064.25
2023-01-17T11:49:25.290Z,95061.31
2023-01-17T11:50:59.030Z,95058.38
2023-01-17T11:52:39.593Z,95057.59
2023-01-17T11:54:30.201Z,95053.19
2023-01-17T11:56:21.423Z,95048.94
2023-01-17T11:57:56.492Z,95037.94
2023-01-17T11:59:35.287Z,95038.78
2023-01-17T12:01:20.018Z,95041.97
2023-01-17T12:03:04.027Z,95039.78
2023-01-17T12:04:42.958Z,95041.00
2023-01-17T12:06:21.151Z,95036.44
2023-01-17T12:08:24.607Z,95033.81
2023-01-17T12:10:02.187Z,95032.19
2023-01-17T12:12:06.537Z,95035.97
2023-01-17T12:14:01.044Z,95024.63
2023-01-17T12:16:31.246Z,95031.28
2023-01-17T12:18:12.003Z,95017.13
2023-01-17T12:20:06.647Z,95020.72
2023-01-17T12:21:38.273Z,95024.13
2023-01-17T12:23:23.169Z,95021.94
2023-01-17T12:25:16.481Z,95021.69
2023-01-17T12:27:29.403Z,95015.34
2023-01-17T12:29:23.088Z,95010.19
2023-01-17T12:31:26.282Z,95008.78
2023-01-17T12:33:13.380Z,95004.97
2023-01-17T12:34:55.585Z,94994.78
2023-01-17T12:36:45.687Z,94993.19
2023-01-17T12:38:45.802Z,94989.41
2023-01-17T12:40:32.808Z,94976.44
2023-01-17T12:42:14.564Z,94982.06
2023-01-17T12:43:47.002Z,94966.03
2023-01-17T12:45:24.413Z,94964.97
2023-01-17T12:47:02.919Z,94962.75
2023-01-17T12:48:39.398Z,94966.38
2023-01-17T12:50:38.002Z,94964.44
2023-01-17T12:52:25.141Z,94962.03
2023-01-17T12:54:04.399Z,94955.88
2023-01-17T12:55:43.131Z,94953.09
2023-01-17T12:57:23.286Z,94952.84
2023-01-17T12:59:03.563Z,94950.66
2023-01-17T13:00:39.015Z,94948.84
2023-01-17T13:02:20.327Z,94946.03
2023-01-17T13:04:16.720Z,94958.06
2023-01-17T13:05:50.591Z,94950.50
2023-01-17T13:07:33.110Z,94948.72
2023-01-17T13:09:05.574Z,94943.13
2023-01-17T13:10:55.776Z,94928.81
2023-01-17T13:12:31.445Z,94941.13
2023-01-17T13:14:06.158Z,94930.72
2023-01-17T13:15:39.808Z,94936.56
2023-01-17T13:17:46.576Z,94949.94
2023-01-17T13:19:31.348Z,94937.69
2023-01-17T13:21:26.035Z,94938.66
2023-01-17T13:23:06.493Z,94936.50
2023-01-17T13:24:43.990Z,94938.13
2023-01-17T13:26:43.689Z,94935.88
2023-01-17T13:28:36.234Z,94931.03
2023-01-17T13:30:43.245Z,94942.78
2023-01-17T13:32:23.950Z,94931.44
2023-01-17T13:33:58.359Z,94937.59
2023-01-17T13:35:42.860Z,94929.81
2023-01-17T13:37:42.094Z,94925.25
2023-01-17T13:39:29.686Z,94927.28
2023-01-17T13:41:27.481Z,94933.00
2023-01-17T13:43:04.327Z,94922.69
2023-01-17T13:44:36.624Z,94931.25
2023-01-17T13:46:08.457Z,94922.69
2023-01-17T13:47:41.620Z,94926.69
2023-01-17T13:49:33.934Z,94928.97
2023-01-17T13:51:07.256Z,94930.59
2023-01-17T13:52:38.878Z,94934.19
2023-01-17T13:54:30.694Z,94940.84
2023-01-17T13:56:28.578Z,94940.06
2023-01-17T13:58:00.360Z,94935.03
2023-01-17T13:59:32.172Z,94929.44
2023-01-17T14:01:03.886Z,94928.88
2023-01-17T14:02:38.228Z,94927.84
2023-01-17T14:04:11.762Z,94926.47
2023-01-17T14:05:49.229Z,94931.84
2023-01-17T14:07:26.538Z,94933.84
2023-01-17T14:09:17.450Z,94928.69
2023-01-17T14:10:53.455Z,94926.28
2023-01-17T14:12:31.335Z,94930.69
2023-01-17T14:14:40.017Z,94930.25
2023-01-17T14:16:27.021Z,94927.31
2023-01-17T14:18:03.774Z,94930.44
2023-01-17T14:19:37.155Z,94933.50
2023-01-17T14:21:21.434Z,94932.25
2023-01-17T14:22:57.788Z,94931.88
2023-01-17T14:24:30.598Z,94930.28
2023-01-17T14:26:18.391Z,94929.09
2023-01-17T14:28:00.419Z,94927.31
2023-01-17T14:29:53.784Z,94925.31
2023-01-17T14:31:27.967Z,94919.53
2023-01-17T14:33:03.020Z,94923.34
2023-01-17T14:34:35.909Z,94930.91
2023-01-17T14:36:15.321Z,94928.72
2023-01-17T14:37:52.907Z,94925.31
2023-01-17T14:39:24.751Z,94920.34
2023-01-17T14:41:04.863Z,94921.94
2023-01-17T14:42:37.403Z,94922.31
2023-01-17T14:44:11.609Z,94928.13
2023-01-17T14:45:44.344Z,94928.91
2023-01-17T14:47:17.369Z,94920.94
2023-01-17T14:48:50.929Z,94923.53
2023-01-17T14:50:26.626Z,94916.34
2023-01-17T14:52:03.430Z,94926.13
2023-01-17T14:53:35.212Z,94926.13
2023-01-17T14:55:16.545Z,94920.53
2023-01-17T14:56:48.283Z,94921.16
2023-01-17T14:58:25.028Z,94925.53
2023-01-17T15:00:19.067Z,94917.38
2023-01-17T15:02:07.274Z,94918.75
2023-01-17T15:03:46.948Z,94920.38
2023-01-17T15:05:24.349Z,94920.75
2023-01-17T15:06:58.501Z,94918.97
2023-01-17T15:08:35.713Z,94917.34
2023-01-17T15:10:14.687Z,94913.78
2023-01-17T15:11:48.688Z,94923.34
2023-01-17T15:13:43.511Z,94921.16
2023-01-17T15:15:32.077Z,94919.38
2023-01-17T15:17:24.441Z,94917.97
2023-01-17T15:18:57.323Z,94920.75
2023-01-17T15:20:29.121Z,94919.56
2023-01-17T15:22:00.870Z,94925.72
2023-01-17T15:23:37.385Z,94921.16
2023-01-17T15:25:11.788Z,94918.56
2023-01-17T15:26:43.982Z,94921.75
2023-01-17T15:28:16.725Z,94919.56
2023-01-17T15:29:49.024Z,94924.75
2023-01-17T15:31:40.036Z,94922.72
2023-01-17T15:33:17.365Z,94917.97
2023-01-17T15:34:51.228Z,94928.69
2023-01-17T15:36:34.439Z,94926.31
2023-01-17T15:38:06.092Z,94931.50
2023-01-17T15:39:40.473Z,94929.69
2023-01-17T15:41:17.217Z,94928.31
2023-01-17T15:42:53.026Z,94936.09
2023-01-17T15:44:49.690Z,94937.44
2023-01-17T15:46:29.581Z,94935.66
2023-01-17T15:48:33.562Z,94937.25
2023-01-17T15:50:20.587Z,94939.47
2023-01-17T15:52:08.893Z,94940.84
2023-01-17T15:53:42.626Z,94936.66
2023-01-17T15:55:14.795Z,94938.84
2023-01-17T15:56:46.515Z,94943.03
2023-01-17T15:58:27.640Z,94936.66
2023-01-17T15:59:59.932Z,94938.44
2023-01-17T16:01:32.207Z,94946.25
2023-01-17T16:03:25.969Z,94940.84
2023-01-17T16:04:59.100Z,94943.84
2023-01-17T16:06:45.576Z,94945.03
2023-01-17T16:08:24.342Z,94944.66
2023-01-17T16:10:14.334Z,94938.06
2023-01-17T16:11:46.007Z,94946.63
2023-01-17T16:13:17.785Z,94938.66
2023-01-17T16:15:06.199Z,94943.03
2023-01-17T16:16:50.813Z,94945.00
2023-01-17T16:18:24.659Z,94941.81
2023-01-17T16:19:56.599Z,94943.00
2023-01-17T16:21:30.501Z,94940.81
2023-01-17T16:23:02.798Z,94942.41
2023-01-17T16:24:34.433Z,94936.41
2023-01-17T16:26:06.140Z,94942.94
2023-01-17T16:27:37.929Z,94939.56
2023-01-17T16:29:10.174Z,94936.22
2023-01-17T16:30:42.195Z,94940.00
2023-01-17T16:32:15.780Z,94935.63
2023-01-17T16:33:49.211Z,94946.16
2023-01-17T16:35:23.415Z,94952.09
2023-01-17T16:36:55.218Z,94948.91
2023-01-17T16:38:26.854Z,94959.69
2023-01-17T16:39:58.558Z,94961.28
2023-01-17T16:41:30.234Z,94960.06
2023-01-17T16:43:01.933Z,94965.59
2023-01-17T16:44:33.648Z,94970.16
2023-01-17T16:46:06.085Z,94961.94
2023-01-17T16:47:40.894Z,94975.75
2023-01-17T16:49:12.605Z,94972.91
2023-01-17T16:50:48.218Z,94979.47
2023-01-17T16:52:19.933Z,94983.34
2023-01-17T16:53:51.660Z,94985.69
2023-01-17T16:55:25.110Z,94990.63
2023-01-17T16:56:56.785Z,94989.69
2023-01-17T16:58:28.575Z,94993.06
2023-01-17T17:00:00.365Z,94992.09
2023-01-17T17:01:32.205Z,94997.00
2023-01-17T17:03:04.087Z,94999.06
2023-01-17T17:04:35.969Z,94992.53
2023-01-17T17:06:08.809Z,94994.66
2023-01-17T17:07:43.033Z,94999.59
2023-01-17T17:09:14.753Z,94992.38
2023-01-17T17:10:46.456Z,94994.25
2023-01-17T17:12:18.204Z,94996.78
2023-01-17T17:13:51.295Z,94994.00
2023-01-17T17:15:22.998Z,94993.38
2023-01-17T17:16:54.682Z,94992.53
2023-01-17T17:18:27.455Z,94998.69
2023-01-17T17:20:00.165Z,94994.38
2023-01-17T17:21:34.273Z,95002.75
2023-01-17T17:23:07.063Z,95000.94
2023-01-17T17:24:39.642Z,95002.78
2023-01-17T17:26:12.239Z,95012.56
2023-01-17T17:27:44.272Z,95008.19
2023-01-17T17:29:16.580Z,95012.13
2023-01-17T17:30:48.791Z,95007.03
2023-01-17T17:32:21.926Z,95012.84
2023-01-17T17:33:59.392Z,95009.63
2023-01-17T17:35:35.024Z,95015.75
2023-01-17T17:37:07.636Z,95016.59
2023-01-17T17:38:54.169Z,95011.97
2023-01-17T17:40:26.487Z,95018.81
2023-01-17T17:41:58.999Z,95021.19
2023-01-17T17:43:31.195Z,95022.78
2023-01-17T17:45:03.293Z,95024.56
2023-01-17T17:46:37.397Z,95024.22
2023-01-17T17:48:09.614Z,95029.56
2023-01-17T17:49:41.508Z,95026.00
2023-01-17T17:51:26.231Z,95034.97
2023-01-17T17:52:58.201Z,95032.69
2023-01-17T17:54:30.324Z,95037.22
2023-01-17T17:56:04.220Z,95036.56
2023-01-17T17:57:36.172Z,95034.72
2023-01-17T17:59:09.700Z,95028.81
2023-01-17T18:00:41.888Z,95033.47
2023-01-17T18:02:14.138Z,95037.22
2023-01-17T18:03:46.416Z,95041.38
2023-01-17T18:05:18.630Z,95046.44
2023-01-17T18:06:50.590Z,95040.13
2023-01-17T18:08:23.063Z,95038.63
2023-01-17T18:09:55.524Z,95036.47
2023-01-17T18:11:28.618Z,95042.59
2023-01-17T18:13:00.610Z,95044.38
2023-01-17T18:14:32.560Z,95040.41
2023-01-17T18:16:10.386Z,95040.41
2023-01-17T18:17:42.244Z,95044.56
2023-01-17T18:19:18.079Z,95051.69
2023-01-17T18:20:50.234Z,95051.84
2023-01-17T18:22:22.094Z,95048.47
2023-01-17T18:24:00.039Z,95051.84
2023-01-17T18:25:36.456Z,95056.22
2023-01-17T18:27:10.504Z,95053.81
2023-01-17T18:28:42.669Z,95057.34
2023-01-17T18:30:14.688Z,95050.91
2023-01-17T18:31:47.864Z,95053.38
2023-01-17T18:33:19.534Z,95046.63
2023-01-17T18:34:51.540Z,95058.53
2023-01-17T18:36:24.052Z,95053.97
2023-01-17T18:37:58.026Z,95054.25
2023-01-17T18:39:30.845Z,95042.53
2023-01-17T18:41:03.307Z,95046.63
2023-01-17T18:42:35.105Z,95052.84
2023-01-17T18:44:07.778Z,95056.06
2023-01-17T18:45:39.650Z,95049.53
2023-01-17T18:47:13.036Z,95052.84
2023-01-17T18:48:45.324Z,95046.53
2023-01-17T18:50:17.010Z,95052.03
2023-01-17T18:51:51.918Z,95050.09
2023-01-17T18:53:24.117Z,95048.50
2023-01-17T18:54:55.808Z,95049.47
2023-01-17T18:56:30.577Z,95051.06
2023-01-17T18:58:02.329Z,95050.63
2023-01-17T18:59:34.046Z,95050.00
2023-01-17T19:01:16.862Z,95048.75
2023-01-17T19:02:49.035Z,95051.16
2023-01-17T19:04:21.646Z,95052.84
2023-01-17T19:05:53.378Z,95048.41
2023-01-17T19:07:29.131Z,95048.66
2023-01-17T19:09:01.667Z,95057.13